Da Nang International Airport


Codes: VVDN/DAD
Name: Da Nang International Airport
City: Da Nang
Country: Vietnam
Elevation: 33 ft.
Wikipedia:

Photos at Da Nang International Airport


   Photos courtesy of SpottingLog. You can add your own sightings and photos by signing up for a free trial today.



No photos found.

Weather at Da Nang International Airport


Time (UTC)DescriptionTempratureWindCloud coverageVisibilityPressureHumidity
16-Jun-2024 12:00Light Rain33°C4 mph, SW20%10000m1003hPa70%
16-Jun-2024 15:00Light Rain31°C9 mph, SW47%10000m1004hPa77%
16-Jun-2024 18:00Broken Clouds28°C7 mph, SW73%10000m1004hPa80%
16-Jun-2024 21:00Overcast Clouds27°C7 mph, SW100%10000m1004hPa79%
17-Jun-2024 00:00Overcast Clouds29°C7 mph, SW100%10000m1005hPa71%
17-Jun-2024 03:00Overcast Clouds34°C2 mph, SE100%10000m1005hPa53%
17-Jun-2024 06:00Overcast Clouds33°C11 mph, E100%10000m1003hPa58%
17-Jun-2024 09:00Light Rain32°C13 mph, SE77%10000m1004hPa68%
17-Jun-2024 12:00Moderate Rain27°C13 mph, NW88%10000m1005hPa91%
17-Jun-2024 15:00Light Rain27°C7 mph, SW100%10000m1007hPa89%
17-Jun-2024 18:00Overcast Clouds26°C7 mph, SW91%10000m1005hPa88%
17-Jun-2024 21:00Overcast Clouds26°C9 mph, SW91%10000m1004hPa82%
18-Jun-2024 00:00Overcast Clouds29°C9 mph, SW96%10000m1005hPa71%
18-Jun-2024 03:00Overcast Clouds34°C4 mph, W100%10000m1005hPa54%
18-Jun-2024 06:00Overcast Clouds34°C9 mph, NE100%10000m1002hPa55%
18-Jun-2024 09:00Overcast Clouds31°C7 mph, E100%10000m1002hPa73%
18-Jun-2024 12:00Light Rain29°C7 mph, SE100%10000m1003hPa81%
18-Jun-2024 15:00Light Rain27°C7 mph, SW100%10000m1005hPa88%
18-Jun-2024 18:00Overcast Clouds27°C7 mph, SW100%10000m1004hPa88%
18-Jun-2024 21:00Overcast Clouds26°C7 mph, SW100%10000m1003hPa83%
19-Jun-2024 00:00Overcast Clouds29°C7 mph, SW94%10000m1004hPa71%
19-Jun-2024 03:00Overcast Clouds35°C4 mph, W99%10000m1004hPa53%
19-Jun-2024 06:00Overcast Clouds33°C11 mph, NE99%10000m1002hPa61%
19-Jun-2024 09:00Overcast Clouds31°C7 mph, E99%10000m1002hPa70%
19-Jun-2024 12:00Light Rain28°C7 mph, SE100%10000m1003hPa88%
19-Jun-2024 15:00Light Rain27°C7 mph, SW100%10000m1005hPa88%
19-Jun-2024 18:00Overcast Clouds27°C7 mph, SW100%10000m1003hPa87%
19-Jun-2024 21:00Overcast Clouds27°C7 mph, SW100%10000m1002hPa82%
20-Jun-2024 00:00Light Rain29°C7 mph, SW100%10000m1004hPa70%
20-Jun-2024 03:00Overcast Clouds35°C2 mph, NW100%10000m1004hPa51%
20-Jun-2024 06:00Overcast Clouds33°C11 mph, NE100%10000m1002hPa59%
20-Jun-2024 09:00Overcast Clouds31°C9 mph, SE100%10000m1002hPa69%
20-Jun-2024 12:00Light Rain30°C2 mph, S98%10000m1003hPa79%
20-Jun-2024 15:00Overcast Clouds28°C7 mph, SW99%10000m1005hPa83%
20-Jun-2024 18:00Light Rain27°C4 mph, SW100%10000m1003hPa82%
20-Jun-2024 21:00Light Rain26°C7 mph, SW100%10000m1003hPa82%
21-Jun-2024 00:00Overcast Clouds29°C7 mph, SW100%10000m1004hPa71%
21-Jun-2024 03:00Overcast Clouds35°C2 mph, SE97%10000m1003hPa50%
21-Jun-2024 06:00Overcast Clouds33°C11 mph, E99%10000m1002hPa61%
21-Jun-2024 09:00Overcast Clouds32°C7 mph, E100%10000m1001hPa68%